Terminal Aerodrome Forecast
Issued by NWS Wakefield, VA

Home | Current Version | Previous Version | Text Only | Print | Product List | Glossary On
Versions: 1 2 3 4 5 6 7 8 9 10 11 12 13 14
336
FTUS41 KAKQ 142326
TAFSBY
TAF
KSBY 142326Z 1500/1524 36005KT P6SM SKC
     FM151300 00000KT P6SM BKN080
     FM151800 05005KT 3SM -SN OVC030=

USA.gov is the U.S. government's official web portal to all federal, state and local government web resources and services.